首页
METAR-TAF:

METAR-TAF

机场 :

克里斯蒂亚诺·罗纳尔多机场

丰沙尔, 馬德拉群岛, 葡萄牙

纬度: 32-41-52N, 经度: 016-46-28W, 海拔: 59米

当前天气观测

该预报发布于14分钟前的08:30 UTC
风速1节,风向多变
温度 14°C
湿度 77%
气压 1022 hPa
能见度10公里或以上
少量云层高于1500英尺

METAR: LPMA 170830Z VRB01KT 9999 FEW015 14/10 Q1022

时间: 08:44 (08:44 UTC)

预报

该预报发布于3小时和44分钟前的05:00 UTC
预报有效从17日的 06点(UTC)到 18日的 06点(UTC)
风速5节,风向多变
能见度10公里或以上
散云层高于1600英尺
成为
从 17日的 09点(UTC)到 17日的 12点(UTC)
风速7节,风向南转西南
散云层高于1500英尺
多云层高于6000英尺
短暂存在
从 17日的 09点(UTC)到 17日的 21点(UTC)
能見度: 6000
多云层高于2000英尺
小雨
成为
从 17日的 18点(UTC)到 17日的 21点(UTC)
风速20节,风向
短暂存在
从 17日的 21点(UTC)到 18日的 06点(UTC)
风速25节,风向,有时为35节阵风

TAF: LPMA 170500Z 1706/1806 VRB05KT 9999 SCT016 BECMG 1709/1712 21007KT SCT015 BKN060 TEMPO 1709/1721 6000 -RA BKN020 BECMG 1718/1721 36020KT TEMPO 1721/1806 36025G35KT

超过4000个机场的气象观测和天气预报(METAR&TAF报告)。

可查询的气象台以黄色和红色小点在地图上表示。

将鼠标移到小点上方,可查看气象台名称。

然后点击查看天气观测和预报。

如需切换地图:点击带黑十字的绿色按钮放大地图;点击带横线的绿色按钮缩小地图;或者点击绿色箭头查看邻近地区的地图。


METAR-TAF: